Time;durP1;ratioP1;P1;durP2;ratioP2;P2;SDS_P1;SDS_P2;PMS_P1;PMS_P2;Temp;Humidity;BMP_temperature;BMP_pressure;BME280_temperature;BME280_humidity;BME280_pressure;Samples;Min_cycle;Max_cycle;Signal;HPM_P1;HPM_P2
2023/11/19 00:01:53;;;;;;;2.27;2.07;;;10.00;99.90;;;;;;5033585;28;20199;-74
2023/11/19 00:04:19;;;;;;;2.50;2.30;;;10.10;99.90;;;;;;5033139;28;20497;-73
2023/11/19 00:06:44;;;;;;;4.90;2.23;;;10.10;99.90;;;;;;5033324;28;20168;-74
2023/11/19 00:09:10;;;;;;;2.13;1.93;;;10.10;99.90;;;;;;5033252;28;20281;-74
2023/11/19 00:11:36;;;;;;;3.93;2.10;;;10.20;99.90;;;;;;5033201;28;20170;-74
2023/11/19 00:14:01;;;;;;;2.63;1.80;;;10.40;99.90;;;;;;5033165;28;20197;-74
2023/11/19 00:16:27;;;;;;;2.30;1.80;;;10.40;99.90;;;;;;5033452;28;20794;-74
2023/11/19 00:18:53;;;;;;;1.70;1.60;;;10.30;99.90;;;;;;5033073;28;20169;-75
2023/11/19 00:21:19;;;;;;;1.80;1.70;;;10.40;99.90;;;;;;5033301;28;20433;-74
2023/11/19 00:23:44;;;;;;;2.67;2.47;;;10.50;99.90;;;;;;5033140;28;20215;-73
2023/11/19 00:26:10;;;;;;;1.93;1.83;;;10.50;99.90;;;;;;5033346;28;20528;-73
2023/11/19 00:28:38;;;;;;;1.90;1.70;;;10.50;99.90;;;;;;5033545;28;20197;-72
2023/11/19 00:31:04;;;;;;;1.83;1.40;;;10.60;99.90;;;;;;5033175;28;20175;-73
2023/11/19 00:33:31;;;;;;;2.73;2.00;;;10.60;99.90;;;;;;5033107;28;20584;-73
2023/11/19 00:35:56;;;;;;;2.60;1.97;;;10.70;99.90;;;;;;5033062;28;20912;-73
2023/11/19 00:38:22;;;;;;;2.80;2.00;;;10.60;99.90;;;;;;5033119;28;20415;-74
2023/11/19 00:40:47;;;;;;;1.83;1.60;;;10.60;99.90;;;;;;5032454;28;20181;-72
2023/11/19 00:43:13;;;;;;;3.80;1.80;;;10.60;99.90;;;;;;5032383;28;20206;-73
2023/11/19 00:45:39;;;;;;;1.93;1.77;;;10.60;99.90;;;;;;5033317;28;20174;-74
2023/11/19 00:48:04;;;;;;;2.20;1.73;;;10.60;99.90;;;;;;5033245;28;20536;-74
2023/11/19 00:50:31;;;;;;;1.37;1.23;;;10.60;99.90;;;;;;5032959;28;20622;-74
2023/11/19 00:52:56;;;;;;;1.80;1.60;;;10.70;99.90;;;;;;5032757;28;20436;-74
2023/11/19 00:55:22;;;;;;;1.50;1.40;;;10.60;99.90;;;;;;5033393;28;20400;-74
2023/11/19 00:57:47;;;;;;;4.23;1.50;;;10.70;99.90;;;;;;5033164;28;20206;-73
2023/11/19 01:00:19;;;;;;;1.97;1.60;;;10.80;99.90;;;;;;5032702;28;20534;-73
2023/11/19 01:02:46;;;;;;;1.60;1.47;;;10.90;99.90;;;;;;5033475;28;20206;-74
2023/11/19 01:05:14;;;;;;;2.40;1.53;;;10.90;99.90;;;;;;5036378;28;20452;-74
2023/11/19 01:07:39;;;;;;;2.27;1.83;;;10.90;99.90;;;;;;5036683;28;20413;-74
2023/11/19 01:10:06;;;;;;;1.57;1.20;;;11.00;99.90;;;;;;5036545;28;20807;-73
2023/11/19 01:12:31;;;;;;;1.50;1.30;;;11.00;99.90;;;;;;5036529;28;20254;-74
2023/11/19 01:14:57;;;;;;;1.83;1.10;;;11.10;99.90;;;;;;5036580;28;20489;-74
2023/11/19 01:17:23;;;;;;;2.07;1.50;;;11.10;99.90;;;;;;5036499;28;20172;-74
2023/11/19 01:19:50;;;;;;;1.47;1.30;;;11.10;99.90;;;;;;5036329;28;20408;-74
2023/11/19 01:22:15;;;;;;;1.73;1.00;;;11.20;99.90;;;;;;5036556;28;20210;-73
2023/11/19 01:24:41;;;;;;;1.70;1.30;;;11.30;99.90;;;;;;5036269;28;20774;-75
2023/11/19 01:27:06;;;;;;;1.03;0.93;;;11.30;99.90;;;;;;5036487;28;20195;-75
2023/11/19 01:29:33;;;;;;;1.20;1.10;;;11.40;99.90;;;;;;5036420;28;20232;-73
2023/11/19 01:31:58;;;;;;;1.30;0.90;;;11.40;99.90;;;;;;5036148;28;20638;-74
2023/11/19 01:34:24;;;;;;;1.07;0.87;;;11.40;99.90;;;;;;5036400;28;20409;-74
2023/11/19 01:36:49;;;;;;;0.80;0.60;;;11.30;99.90;;;;;;5036210;28;20171;-73
2023/11/19 01:39:19;;;;;;;1.23;0.83;;;11.20;99.90;;;;;;5036217;28;20242;-74
2023/11/19 01:41:45;;;;;;;1.07;0.70;;;11.40;99.90;;;;;;5036477;28;20286;-74
2023/11/19 01:44:13;;;;;;;0.90;0.70;;;11.40;99.90;;;;;;5035960;28;20469;-73
2023/11/19 01:46:42;;;;;;;3.80;1.10;;;11.40;99.90;;;;;;5034835;28;20168;-74
2023/11/19 01:49:08;;;;;;;1.20;0.80;;;11.50;99.90;;;;;;5036018;28;20806;-73
2023/11/19 01:51:34;;;;;;;1.30;0.90;;;11.50;99.90;;;;;;5036427;28;20413;-72
2023/11/19 01:54:01;;;;;;;1.00;0.90;;;11.60;99.90;;;;;;5035708;28;20941;-73
2023/11/19 01:56:27;;;;;;;1.00;0.73;;;11.60;99.90;;;;;;5036077;28;20407;-74
2023/11/19 01:58:54;;;;;;;0.90;0.70;;;11.70;99.90;;;;;;5036131;28;20405;-74
2023/11/19 02:01:20;;;;;;;0.77;0.70;;;11.60;99.90;;;;;;5035658;28;20167;-74
2023/11/19 02:03:47;;;;;;;1.03;0.60;;;11.60;99.90;;;;;;5035810;28;20426;-75
2023/11/19 02:06:13;;;;;;;2.07;0.70;;;11.70;99.90;;;;;;5035175;28;20552;-74
2023/11/19 02:08:39;;;;;;;1.00;0.60;;;11.60;99.90;;;;;;5035661;28;20481;-73
2023/11/19 02:11:06;;;;;;;0.80;0.60;;;11.70;99.90;;;;;;5035404;28;20411;-75
2023/11/19 02:13:32;;;;;;;1.20;0.63;;;11.70;99.90;;;;;;5035634;28;20305;-72
2023/11/19 02:15:58;;;;;;;1.20;0.70;;;11.70;99.90;;;;;;5034335;28;20836;-73
2023/11/19 02:18:27;;;;;;;3.10;0.90;;;11.80;99.90;;;;;;5035386;28;20170;-74
2023/11/19 02:20:54;;;;;;;1.20;1.00;;;11.80;99.90;;;;;;5035461;28;20419;-74
2023/11/19 02:23:20;;;;;;;1.63;0.80;;;11.90;99.90;;;;;;5035357;28;20468;-73
2023/11/19 02:26:14;;;;;;;1.10;0.80;;;11.80;99.90;;;;;;5035236;28;20396;-73
2023/11/19 02:28:40;;;;;;;1.00;0.60;;;11.80;99.90;;;;;;5035126;28;20808;-73
2023/11/19 02:31:09;;;;;;;1.27;0.90;;;11.70;99.90;;;;;;5035074;28;20745;-73
2023/11/19 02:33:36;;;;;;;1.10;0.90;;;11.70;99.90;;;;;;5034953;28;20431;-73
2023/11/19 02:36:02;;;;;;;1.07;0.80;;;11.60;99.90;;;;;;5035255;28;20411;-75
2023/11/19 02:38:27;;;;;;;1.00;0.90;;;11.70;99.90;;;;;;5034874;28;20410;-75
2023/11/19 02:40:53;;;;;;;1.33;0.70;;;11.70;99.90;;;;;;5034942;28;20422;-74
2023/11/19 02:43:19;;;;;;;1.30;1.17;;;11.90;99.90;;;;;;5034705;28;20247;-74
2023/11/19 02:45:45;;;;;;;1.53;0.83;;;11.90;99.90;;;;;;5035198;28;20168;-74
2023/11/19 02:48:11;;;;;;;1.13;0.90;;;12.00;99.90;;;;;;5034964;28;20165;-73
2023/11/19 02:50:37;;;;;;;1.17;0.93;;;11.90;99.90;;;;;;5034713;28;20744;-73
2023/11/19 02:53:02;;;;;;;2.23;0.90;;;12.00;99.90;;;;;;5035067;28;20550;-74
2023/11/19 02:55:30;;;;;;;1.03;0.80;;;12.10;99.90;;;;;;5034748;28;20175;-75
2023/11/19 02:57:59;;;;;;;1.90;1.00;;;12.20;99.90;;;;;;5034634;28;20250;-74
2023/11/19 03:00:31;;;;;;;3.70;1.50;;;12.20;99.90;;;;;;5034929;28;20495;-74
2023/11/19 03:03:05;;;;;;;1.47;0.90;;;12.00;99.90;;;;;;5034589;28;20983;-75
2023/11/19 03:05:30;;;;;;;1.30;0.90;;;12.10;99.90;;;;;;5034862;28;20784;-74
2023/11/19 03:07:57;;;;;;;3.57;1.07;;;12.10;99.90;;;;;;5034564;28;20410;-74
2023/11/19 03:10:23;;;;;;;1.87;0.93;;;12.20;99.90;;;;;;5034874;28;20179;-74
2023/11/19 03:12:49;;;;;;;1.33;0.80;;;12.10;99.90;;;;;;5034681;28;20458;-75
2023/11/19 03:15:15;;;;;;;1.80;1.23;;;12.20;99.90;;;;;;5034564;28;20926;-73
2023/11/19 03:17:45;;;;;;;1.70;1.40;;;12.40;99.90;;;;;;5034540;28;20687;-73
2023/11/19 03:20:14;;;;;;;1.97;1.67;;;12.30;99.90;;;;;;5034412;28;20917;-73
2023/11/19 03:22:44;;;;;;;5.27;1.93;;;12.10;99.90;;;;;;5034255;28;20972;-74
2023/11/19 03:25:10;;;;;;;5.60;1.70;;;12.00;99.90;;;;;;5034856;28;20417;-74
2023/11/19 03:27:36;;;;;;;2.80;1.90;;;12.10;99.90;;;;;;5034259;28;20404;-74
2023/11/19 03:30:04;;;;;;;1.67;1.40;;;12.20;99.90;;;;;;5034396;28;20501;-74
2023/11/19 03:32:34;;;;;;;5.27;4.30;;;12.10;99.90;;;;;;5034213;28;20480;-74
2023/11/19 03:35:00;;;;;;;3.83;2.90;;;12.10;99.90;;;;;;5034232;28;20402;-74
2023/11/19 03:37:26;;;;;;;2.47;1.83;;;12.20;99.90;;;;;;5035278;28;20406;-74
2023/11/19 03:39:54;;;;;;;2.27;1.27;;;12.20;99.90;;;;;;5035575;28;20174;-74
2023/11/19 03:42:23;;;;;;;1.70;1.40;;;12.30;99.90;;;;;;5057352;22;20979;-75
2023/11/19 03:44:49;;;;;;;1.30;1.07;;;12.30;99.90;;;;;;5014428;28;20418;-75
2023/11/19 03:47:15;;;;;;;1.40;0.93;;;12.40;99.90;;;;;;5014027;28;20387;-75
2023/11/19 03:49:40;;;;;;;1.10;0.90;;;12.10;99.90;;;;;;5017766;28;20443;-75
2023/11/19 03:52:06;;;;;;;3.70;2.10;;;12.10;99.90;;;;;;5033552;28;20175;-75
2023/11/19 03:54:32;;;;;;;3.33;1.40;;;12.20;99.90;;;;;;5033208;28;20191;-76
2023/11/19 03:56:59;;;;;;;3.57;1.53;;;12.30;99.90;;;;;;5048630;28;20172;-75
2023/11/19 03:59:25;;;;;;;2.03;1.00;;;12.40;99.90;;;;;;5029891;28;20497;-76
2023/11/19 04:01:53;;;;;;;1.30;1.07;;;12.40;99.90;;;;;;5013143;28;20950;-76
2023/11/19 04:04:19;;;;;;;1.27;0.90;;;12.30;99.90;;;;;;5013738;28;20324;-75
2023/11/19 04:06:44;;;;;;;0.90;0.80;;;12.20;99.90;;;;;;5028766;28;20857;-76
2023/11/19 04:09:10;;;;;;;0.80;0.57;;;12.10;99.90;;;;;;5013215;28;20242;-75
2023/11/19 04:11:36;;;;;;;0.90;0.50;;;12.10;99.90;;;;;;5028985;28;20179;-76
2023/11/19 04:14:01;;;;;;;1.33;0.60;;;12.20;99.90;;;;;;5012976;28;20197;-75
2023/11/19 04:16:30;;;;;;;1.00;0.60;;;12.10;99.90;;;;;;5013404;28;20405;-75
2023/11/19 04:18:56;;;;;;;0.80;0.50;;;12.10;99.90;;;;;;5011780;28;20171;-75
2023/11/19 04:21:22;;;;;;;0.80;0.50;;;12.20;99.90;;;;;;5030268;28;20901;-76
2023/11/19 04:23:48;;;;;;;1.00;0.50;;;12.20;99.90;;;;;;5032621;28;20578;-75
2023/11/19 04:26:14;;;;;;;0.70;0.50;;;12.20;99.90;;;;;;5032985;28;20413;-75
2023/11/19 04:28:41;;;;;;;0.80;0.50;;;12.30;99.90;;;;;;5033009;28;20186;-75
2023/11/19 04:31:06;;;;;;;0.70;0.50;;;12.30;99.90;;;;;;5017466;28;20406;-76
2023/11/19 04:33:32;;;;;;;0.80;0.50;;;12.30;99.90;;;;;;5012807;28;20197;-76
2023/11/19 04:35:57;;;;;;;0.90;0.50;;;12.20;99.90;;;;;;5014734;28;20248;-76
2023/11/19 04:38:23;;;;;;;1.03;0.60;;;12.20;99.90;;;;;;5028664;28;20191;-76
2023/11/19 04:40:49;;;;;;;0.70;0.40;;;12.30;99.90;;;;;;5019911;28;20170;-76
2023/11/19 04:43:15;;;;;;;0.70;0.40;;;12.30;99.90;;;;;;5012634;28;20203;-76
2023/11/19 04:45:41;;;;;;;0.80;0.50;;;12.30;99.90;;;;;;5012820;28;20216;-76
2023/11/19 04:48:06;;;;;;;1.40;0.60;;;12.40;99.90;;;;;;5012792;28;20804;-76
2023/11/19 04:50:32;;;;;;;0.80;0.50;;;12.40;99.90;;;;;;5022802;28;20172;-76
2023/11/19 04:52:57;;;;;;;0.90;0.40;;;12.30;99.90;;;;;;5032652;28;20227;-76
2023/11/19 04:55:23;;;;;;;0.60;0.40;;;12.40;99.90;;;;;;5032399;28;20175;-76
2023/11/19 04:57:48;;;;;;;0.90;0.50;;;12.40;99.90;;;;;;5031125;28;20174;-76
2023/11/19 05:00:14;;;;;;;0.90;0.40;;;12.50;99.90;;;;;;5024735;28;20176;-76
2023/11/19 05:02:40;;;;;;;1.67;0.40;;;12.50;99.90;;;;;;5012681;28;20204;-76
2023/11/19 05:05:06;;;;;;;0.70;0.40;;;12.50;99.90;;;;;;5012697;28;20245;-75
2023/11/19 05:07:31;;;;;;;0.70;0.40;;;12.40;99.90;;;;;;5012722;28;20163;-75
2023/11/19 05:09:58;;;;;;;0.70;0.40;;;12.40;99.90;;;;;;5017817;28;20408;-76
2023/11/19 05:12:24;;;;;;;0.70;0.40;;;12.50;99.90;;;;;;5032459;28;20275;-75
2023/11/19 05:14:50;;;;;;;0.70;0.50;;;12.50;99.90;;;;;;5031175;28;20414;-75
2023/11/19 05:17:18;;;;;;;1.80;0.50;;;12.60;99.90;;;;;;5032141;28;20166;-75
2023/11/19 05:19:43;;;;;;;1.30;0.60;;;12.50;99.90;;;;;;5029149;28;20407;-75
2023/11/19 05:22:09;;;;;;;0.70;0.50;;;12.60;99.90;;;;;;5012384;28;20736;-75
2023/11/19 05:24:35;;;;;;;0.80;0.50;;;12.50;99.90;;;;;;5012402;28;20243;-75
2023/11/19 05:27:01;;;;;;;1.43;0.40;;;12.60;99.90;;;;;;5011326;28;20176;-75
2023/11/19 05:29:28;;;;;;;0.97;0.50;;;12.50;99.90;;;;;;5013354;28;20422;-75
2023/11/19 05:31:55;;;;;;;1.00;0.63;;;12.50;99.90;;;;;;5032291;28;20398;-76
2023/11/19 05:34:21;;;;;;;0.90;0.47;;;12.50;99.90;;;;;;5032137;28;20554;-76
2023/11/19 05:36:46;;;;;;;1.43;0.50;;;12.50;99.90;;;;;;5032714;28;20414;-76
2023/11/19 05:39:12;;;;;;;0.70;0.40;;;12.50;99.90;;;;;;5032278;28;20177;-76
2023/11/19 05:41:38;;;;;;;0.90;0.50;;;12.60;99.90;;;;;;5013482;28;20174;-76
2023/11/19 05:44:04;;;;;;;0.90;0.53;;;12.70;99.90;;;;;;5011095;28;20316;-76
2023/11/19 05:46:30;;;;;;;0.80;0.50;;;12.70;99.90;;;;;;5012396;28;20429;-75
2023/11/19 05:48:55;;;;;;;0.70;0.40;;;12.70;99.90;;;;;;5012184;28;20258;-76
2023/11/19 05:51:21;;;;;;;0.83;0.50;;;12.70;99.90;;;;;;5030986;28;20170;-76
2023/11/19 05:53:47;;;;;;;0.67;0.50;;;12.70;99.90;;;;;;5035553;28;20200;-76
2023/11/19 05:56:13;;;;;;;0.80;0.53;;;12.80;99.90;;;;;;5036018;28;20265;-76
2023/11/19 05:58:40;;;;;;;0.80;0.50;;;12.80;99.90;;;;;;5035664;28;20167;-76
2023/11/19 06:01:07;;;;;;;1.90;0.40;;;12.80;99.90;;;;;;5021717;28;20496;-76
2023/11/19 06:03:33;;;;;;;3.10;0.50;;;12.80;99.90;;;;;;5015357;28;21010;-76
2023/11/19 06:05:58;;;;;;;3.20;0.70;;;12.80;99.90;;;;;;5015577;28;20530;-76
2023/11/19 06:08:26;;;;;;;1.00;0.40;;;12.70;99.90;;;;;;5015658;28;20637;-76
2023/11/19 06:10:52;;;;;;;0.80;0.50;;;12.70;99.90;;;;;;5027350;28;20266;-76
2023/11/19 06:13:19;;;;;;;0.80;0.50;;;12.70;99.90;;;;;;5015111;28;21017;-76
2023/11/19 06:15:44;;;;;;;2.40;0.60;;;12.70;99.90;;;;;;5015561;28;20574;-76
2023/11/19 06:18:12;;;;;;;1.30;0.50;;;12.70;99.90;;;;;;5015919;28;20412;-76
2023/11/19 06:20:37;;;;;;;0.90;0.50;;;12.80;99.90;;;;;;5024648;28;20574;-76
2023/11/19 06:23:03;;;;;;;1.13;0.50;;;12.80;99.90;;;;;;5034768;28;20462;-76
2023/11/19 06:25:29;;;;;;;0.93;0.50;;;12.90;99.90;;;;;;5035171;28;20590;-76
2023/11/19 06:27:54;;;;;;;0.90;0.50;;;12.90;99.90;;;;;;5035114;28;20171;-76
2023/11/19 06:30:20;;;;;;;0.70;0.50;;;12.80;99.90;;;;;;5033447;28;20171;-76
2023/11/19 06:32:46;;;;;;;0.70;0.50;;;12.80;99.90;;;;;;5050170;28;20757;-76
2023/11/19 06:35:13;;;;;;;1.17;0.53;;;12.80;99.90;;;;;;5034733;28;20182;-76
2023/11/19 06:37:39;;;;;;;0.80;0.50;;;12.80;99.90;;;;;;5034678;28;20409;-76
2023/11/19 06:40:06;;;;;;;1.07;0.50;;;12.90;99.90;;;;;;5029910;28;20471;-76
2023/11/19 06:42:32;;;;;;;0.87;0.50;;;12.90;99.90;;;;;;5014884;28;20463;-76
2023/11/19 06:44:57;;;;;;;0.80;0.60;;;13.00;99.90;;;;;;5014687;28;20460;-76
2023/11/19 06:47:29;;;;;;;0.90;0.60;;;13.00;99.90;;;;;;5032605;28;20411;-77
2023/11/19 06:49:55;;;;;;;0.80;0.53;;;13.00;99.90;;;;;;5018300;28;20715;-76
2023/11/19 06:52:21;;;;;;;0.70;0.60;;;13.10;99.90;;;;;;5034449;28;20448;-76
2023/11/19 06:54:47;;;;;;;0.80;0.50;;;13.20;99.90;;;;;;5033262;28;20680;-76
2023/11/19 06:57:12;;;;;;;1.30;0.50;;;13.20;99.90;;;;;;5034299;28;20175;-76
2023/11/19 06:59:38;;;;;;;1.83;0.70;;;13.20;99.90;;;;;;5033329;28;20664;-76
2023/11/19 07:02:07;;;;;;;1.97;0.70;;;13.10;99.90;;;;;;5013869;28;20224;-76
2023/11/19 07:04:35;;;;;;;0.90;0.60;;;13.10;99.90;;;;;;5014389;28;20446;-75
2023/11/19 07:07:01;;;;;;;0.80;0.50;;;13.10;99.90;;;;;;5015231;28;20817;-76
2023/11/19 07:09:27;;;;;;;0.70;0.50;;;13.00;99.90;;;;;;5014372;28;20403;-76
2023/11/19 07:11:52;;;;;;;0.80;0.50;;;13.10;99.90;;;;;;5033725;28;20191;-75
2023/11/19 07:14:18;;;;;;;0.83;0.50;;;13.00;99.90;;;;;;5034494;28;20202;-76
2023/11/19 07:16:45;;;;;;;1.20;0.50;;;13.00;99.90;;;;;;5034261;28;20179;-75
2023/11/19 07:19:11;;;;;;;0.90;0.50;;;13.00;99.90;;;;;;5034292;28;20787;-75
2023/11/19 07:21:39;;;;;;;1.33;0.50;;;13.00;99.90;;;;;;5017409;28;20423;-76
2023/11/19 07:24:05;;;;;;;0.87;0.60;;;13.00;99.90;;;;;;5014237;28;20220;-75
2023/11/19 07:26:31;;;;;;;0.80;0.60;;;13.00;99.90;;;;;;5013977;28;20407;-75
2023/11/19 07:28:57;;;;;;;0.80;0.60;;;13.00;99.90;;;;;;5014090;28;20402;-76
2023/11/19 07:31:23;;;;;;;1.40;0.80;;;13.00;99.90;;;;;;5028680;28;20414;-76
2023/11/19 07:33:49;;;;;;;1.20;0.83;;;13.00;99.90;;;;;;5033638;28;20183;-76
2023/11/19 07:36:15;;;;;;;1.57;0.63;;;13.00;99.90;;;;;;5034335;28;20420;-76
2023/11/19 07:38:40;;;;;;;0.90;0.70;;;13.00;99.90;;;;;;5034712;28;20253;-75
2023/11/19 07:41:06;;;;;;;0.83;0.60;;;12.90;99.90;;;;;;5021734;28;20191;-76
2023/11/19 07:43:33;;;;;;;1.27;0.50;;;13.10;99.90;;;;;;5013702;28;20239;-76
2023/11/19 07:46:03;;;;;;;2.00;0.50;;;13.20;99.90;;;;;;5012618;28;20421;-76
2023/11/19 07:48:29;;;;;;;0.90;0.67;;;13.20;99.90;;;;;;5013903;28;20455;-76
2023/11/19 07:50:54;;;;;;;1.90;0.80;;;13.20;99.90;;;;;;5024090;28;20448;-75
2023/11/19 07:53:20;;;;;;;0.80;0.50;;;13.20;99.90;;;;;;5033481;28;20205;-75
2023/11/19 07:55:46;;;;;;;0.80;0.40;;;13.20;99.90;;;;;;5033612;28;20680;-76
2023/11/19 07:58:12;;;;;;;1.60;0.50;;;13.30;99.90;;;;;;5033425;28;20237;-75
2023/11/19 08:00:38;;;;;;;1.27;0.60;;;13.40;99.90;;;;;;5025565;28;20406;-75
2023/11/19 08:03:04;;;;;;;0.80;0.50;;;13.40;99.90;;;;;;5013910;28;20208;-75
2023/11/19 08:05:33;;;;;;;0.70;0.50;;;13.40;99.90;;;;;;5014160;28;20398;-76
2023/11/19 08:07:58;;;;;;;1.77;0.70;;;13.30;99.90;;;;;;5013898;28;20414;-76
2023/11/19 08:10:24;;;;;;;0.90;0.60;;;13.40;99.90;;;;;;5020598;28;20417;-75
2023/11/19 08:12:49;;;;;;;0.70;0.50;;;13.40;99.90;;;;;;5031011;28;20262;-76
2023/11/19 08:15:15;;;;;;;0.70;0.47;;;13.40;99.90;;;;;;5016805;28;20176;-76
2023/11/19 08:17:42;;;;;;;0.90;0.50;;;13.40;99.90;;;;;;5037688;28;20309;-75
2023/11/19 08:20:12;;;;;;;0.70;0.60;;;13.40;99.90;;;;;;5031078;28;20436;-75
2023/11/19 08:22:37;;;;;;;0.67;0.40;;;13.60;99.90;;;;;;5029240;28;20913;-76
2023/11/19 08:25:07;;;;;;;1.10;0.60;;;13.60;99.90;;;;;;5016038;28;20453;-76
2023/11/19 08:27:33;;;;;;;0.90;0.70;;;13.60;99.90;;;;;;5021882;28;20239;-75
2023/11/19 08:29:58;;;;;;;1.40;0.50;;;13.60;99.90;;;;;;5031956;28;20862;-75
2023/11/19 08:32:25;;;;;;;1.30;0.60;;;13.80;99.90;;;;;;5049747;28;20174;-75
2023/11/19 08:34:51;;;;;;;0.80;0.60;;;13.90;99.90;;;;;;5048299;28;20172;-76
2023/11/19 08:37:20;;;;;;;1.00;0.60;;;13.90;99.90;;;;;;5034239;28;20414;-75
2023/11/19 08:39:46;;;;;;;1.33;0.60;;;14.10;99.90;;;;;;5031582;28;20206;-76
2023/11/19 08:42:12;;;;;;;0.70;0.50;;;14.20;99.90;;;;;;5012700;28;20624;-76
2023/11/19 08:44:37;;;;;;;0.80;0.50;;;14.50;99.90;;;;;;5012764;28;20974;-76
2023/11/19 08:47:04;;;;;;;1.07;0.60;;;14.60;99.90;;;;;;5013139;28;20173;-76
2023/11/19 08:49:29;;;;;;;1.17;0.70;;;14.60;99.90;;;;;;5014971;28;20170;-75
2023/11/19 08:51:55;;;;;;;0.90;0.50;;;14.70;99.90;;;;;;5030727;28;21002;-75
2023/11/19 08:54:21;;;;;;;1.13;0.50;;;14.80;99.90;;;;;;5032368;28;20604;-75
2023/11/19 08:56:47;;;;;;;1.43;0.70;;;14.60;99.90;;;;;;5047654;28;20174;-75
2023/11/19 08:59:12;;;;;;;0.90;0.63;;;14.50;99.90;;;;;;5032257;28;20907;-76
2023/11/19 09:01:38;;;;;;;1.60;0.70;;;14.60;99.90;;;;;;5016818;28;20180;-76
2023/11/19 09:04:04;;;;;;;1.83;0.77;;;14.50;99.90;;;;;;5012470;28;20184;-76
2023/11/19 09:06:30;;;;;;;0.90;0.60;;;14.60;99.90;;;;;;5011148;28;20177;-77
2023/11/19 09:09:00;;;;;;;0.77;0.50;;;14.50;99.90;;;;;;5012516;28;20405;-76
2023/11/19 09:11:26;;;;;;;1.00;0.70;;;14.50;99.90;;;;;;5026268;28;20256;-76
2023/11/19 09:13:51;;;;;;;1.83;0.60;;;14.60;99.90;;;;;;5032124;28;20421;-76
2023/11/19 09:16:17;;;;;;;1.83;1.00;;;14.60;99.90;;;;;;5032076;28;20171;-76
2023/11/19 09:18:42;;;;;;;1.90;1.10;;;14.90;99.90;;;;;;5032569;28;20641;-76
2023/11/19 09:21:10;;;;;;;2.33;0.80;;;15.10;99.90;;;;;;5021048;28;20576;-76
2023/11/19 09:23:38;;;;;;;1.83;1.23;;;15.20;99.90;;;;;;5012726;28;20629;-76
2023/11/19 09:26:05;;;;;;;0.90;0.60;;;15.20;99.90;;;;;;5016173;28;20407;-76
2023/11/19 09:28:31;;;;;;;0.90;0.67;;;15.00;99.90;;;;;;5016361;28;20399;-77
2023/11/19 09:30:57;;;;;;;1.53;0.90;;;15.20;99.90;;;;;;5025399;28;20587;-76
2023/11/19 09:33:22;;;;;;;1.97;1.17;;;15.30;99.90;;;;;;5051057;28;20465;-77
2023/11/19 09:35:49;;;;;;;1.90;0.80;;;15.40;99.90;;;;;;5035824;28;20175;-77
2023/11/19 09:38:15;;;;;;;2.10;0.90;;;15.50;99.90;;;;;;5035855;28;20167;-77
2023/11/19 09:40:41;;;;;;;1.30;0.80;;;15.70;99.90;;;;;;5028485;28;20399;-76
2023/11/19 09:43:07;;;;;;;1.37;1.03;;;15.80;99.90;;;;;;5016262;28;20474;-76
2023/11/19 09:45:51;;;;;;;3.37;0.83;;;15.80;99.90;;;;;;5016008;28;20172;-77
2023/11/19 09:48:18;;;;;;;1.50;0.70;;;15.90;99.90;;;;;;5015946;28;20395;-77
2023/11/19 09:50:46;;;;;;;1.33;0.70;;;15.80;99.90;;;;;;5038188;28;20403;-77
2023/11/19 09:53:12;;;;;;;1.23;0.90;;;15.80;99.90;;;;;;5035222;28;20858;-77
2023/11/19 09:55:38;;;;;;;1.13;0.80;;;15.70;99.90;;;;;;5035579;28;20436;-77
2023/11/19 09:58:05;;;;;;;4.40;0.90;;;15.80;99.90;;;;;;5035487;28;20179;-76
2023/11/19 10:00:31;;;;;;;0.90;0.63;;;16.10;99.90;;;;;;5029885;28;20168;-76
2023/11/19 10:02:58;;;;;;;1.80;0.80;;;16.10;99.90;;;;;;5015274;28;20550;-76
2023/11/19 10:05:24;;;;;;;1.40;0.90;;;16.10;99.90;;;;;;5014259;28;20403;-76
2023/11/19 10:07:50;;;;;;;1.60;1.00;;;16.20;99.90;;;;;;5015449;28;20461;-77
2023/11/19 10:10:18;;;;;;;0.93;0.70;;;16.30;99.90;;;;;;5033684;28;20452;-76
2023/11/19 10:12:46;;;;;;;1.20;0.73;;;16.50;99.90;;;;;;5035140;28;20505;-76
2023/11/19 10:15:20;;;;;;;2.10;0.60;;;16.50;99.90;;;;;;5028519;28;20490;-76
2023/11/19 10:17:45;;;;;;;1.10;0.70;;;16.40;99.90;;;;;;5015249;28;20490;-76
2023/11/19 10:20:11;;;;;;;1.53;0.87;;;16.30;99.90;;;;;;5017658;28;20485;-77
2023/11/19 10:22:39;;;;;;;0.70;0.50;;;16.40;99.90;;;;;;5033274;28;20253;-77
2023/11/19 10:25:21;;;;;;;1.80;1.17;;;16.50;99.90;;;;;;5034842;28;20160;-76
2023/11/19 10:27:48;;;;;;;1.23;0.90;;;16.60;99.90;;;;;;5034849;28;20386;-76
2023/11/19 10:30:17;;;;;;;1.87;0.60;;;16.80;99.90;;;;;;5032943;28;20406;-77
2023/11/19 10:32:42;;;;;;;1.03;0.70;;;16.70;99.90;;;;;;5034616;28;20434;-76
2023/11/19 10:35:08;;;;;;;2.20;1.10;;;16.90;99.90;;;;;;5034557;28;20493;-77
2023/11/19 10:37:37;;;;;;;1.20;0.90;;;17.10;99.90;;;;;;5034098;28;20168;-77
2023/11/19 10:40:05;;;;;;;1.87;1.00;;;17.30;99.90;;;;;;5033447;28;20167;-77
2023/11/19 10:42:30;;;;;;;1.37;0.70;;;17.40;99.90;;;;;;5016354;28;20445;-77
2023/11/19 10:44:56;;;;;;;1.73;0.80;;;17.40;99.90;;;;;;5015319;28;20414;-77
2023/11/19 10:47:23;;;;;;;1.73;0.60;;;17.90;99.90;;;;;;5014582;28;20179;-77
2023/11/19 10:49:49;;;;;;;1.87;0.77;;;18.20;99.90;;;;;;5014895;28;20244;-77
2023/11/19 10:52:21;;;;;;;2.70;1.10;;;19.20;99.90;;;;;;5033235;28;20406;-76
2023/11/19 10:54:53;;;;;;;1.70;1.20;;;20.20;99.90;;;;;;5034291;28;20437;-77
2023/11/19 10:57:23;;;;;;;2.90;1.20;;;20.20;99.90;;;;;;5034756;28;20382;-76
2023/11/19 10:59:52;;;;;;;1.20;0.80;;;19.60;99.90;;;;;;5034207;28;20439;-77
2023/11/19 11:02:21;;;;;;;1.73;0.97;;;19.70;99.90;;;;;;5014901;28;20439;-76
2023/11/19 11:04:49;;;;;;;1.70;0.93;;;19.80;99.90;;;;;;5014289;28;20403;-77
2023/11/19 11:07:17;;;;;;;1.53;0.73;;;20.00;99.90;;;;;;5014182;28;20418;-77
2023/11/19 11:09:46;;;;;;;1.73;0.70;;;19.90;99.90;;;;;;5013905;28;20986;-77
2023/11/19 11:12:12;;;;;;;4.33;1.10;;;18.80;99.90;;;;;;5028608;28;20422;-77
2023/11/19 11:14:40;;;;;;;1.53;0.90;;;18.00;99.90;;;;;;5049055;28;20426;-76
2023/11/19 11:17:08;;;;;;;1.27;0.80;;;17.60;99.90;;;;;;5033878;28;20410;-77
2023/11/19 11:19:34;;;;;;;1.37;0.83;;;17.10;99.90;;;;;;5034207;28;20486;-77
2023/11/19 11:22:03;;;;;;;1.77;1.00;;;16.70;99.90;;;;;;5034255;28;20445;-76
2023/11/19 11:25:00;;;;;;;1.37;0.90;;;16.50;99.90;;;;;;5014404;28;20431;-77
2023/11/19 11:27:50;;;;;;;1.53;0.90;;;16.40;99.90;;;;;;5013898;28;20676;-76
2023/11/19 11:30:47;;;;;;;2.53;1.00;;;16.30;99.90;;;;;;5014074;28;20754;-77
2023/11/19 11:33:58;;;;;;;3.00;1.17;;;16.50;99.90;;;;;;5022583;28;20795;-77
2023/11/19 11:36:24;;;;;;;1.33;1.07;;;16.50;99.90;;;;;;5033760;28;20390;-76
2023/11/19 11:38:50;;;;;;;1.80;1.03;;;16.40;99.90;;;;;;5034003;28;20406;-76
2023/11/19 11:41:24;;;;;;;2.13;0.93;;;16.30;99.90;;;;;;5033514;28;20423;-76
2023/11/19 11:43:51;;;;;;;1.40;0.80;;;16.30;99.90;;;;;;5019436;28;20222;-76
2023/11/19 11:46:35;;;;;;;2.20;1.20;;;16.30;99.90;;;;;;5013519;28;20489;-77
2023/11/19 11:49:02;;;;;;;2.67;0.80;;;16.70;99.90;;;;;;5013460;28;20485;-76
2023/11/19 11:51:45;;;;;;;1.00;0.70;;;16.60;99.90;;;;;;5013848;28;20411;-77
2023/11/19 11:54:25;;;;;;;1.97;1.30;;;17.30;99.90;;;;;;5029582;28;20436;-77
2023/11/19 11:57:13;;;;;;;1.33;0.80;;;17.90;99.90;;;;;;5033258;28;20470;-77
2023/11/19 11:59:41;;;;;;;1.17;0.70;;;18.00;99.90;;;;;;5048739;28;20498;-77
2023/11/19 12:02:08;;;;;;;1.37;0.90;;;18.20;99.90;;;;;;5033020;28;20489;-77
2023/11/19 12:04:39;;;;;;;1.60;0.60;;;20.10;99.90;;;;;;5028276;28;20438;-77
2023/11/19 12:07:15;;;;;;;2.97;0.90;;;21.10;99.90;;;;;;5028411;28;20763;-77
2023/11/19 12:09:42;;;;;;;2.00;0.70;;;21.00;99.90;;;;;;5013724;28;20383;-77
2023/11/19 12:12:33;;;;;;;1.73;0.70;;;20.70;99.90;;;;;;5013442;28;20403;-77
2023/11/19 12:14:58;;;;;;;1.50;0.70;;;20.90;99.90;;;;;;4993976;28;20412;-77
2023/11/19 12:17:33;;;;;;;1.27;0.80;;;22.40;99.90;;;;;;5016200;28;20419;-77
2023/11/19 12:20:06;;;;;;;2.70;0.90;;;23.10;99.90;;;;;;5013108;28;20167;-77
2023/11/19 12:22:32;;;;;;;1.87;0.90;;;24.50;98.70;;;;;;5014050;28;20537;-77
2023/11/19 12:24:58;;;;;;;1.30;0.70;;;22.90;97.90;;;;;;5023685;28;20404;-77
2023/11/19 12:27:24;;;;;;;1.67;0.80;;;21.60;99.60;;;;;;5013081;28;20210;-77
2023/11/19 12:29:50;;;;;;;2.20;0.60;;;20.80;99.90;;;;;;5013208;28;20395;-77
2023/11/19 12:32:16;;;;;;;1.73;0.80;;;20.50;99.90;;;;;;5013145;28;20247;-77
2023/11/19 12:34:41;;;;;;;1.60;0.60;;;20.30;99.90;;;;;;5032571;28;20943;-77
2023/11/19 12:37:11;;;;;;;1.90;0.90;;;19.50;99.90;;;;;;5032299;28;20543;-77
2023/11/19 12:39:36;;;;;;;1.53;0.70;;;18.90;99.90;;;;;;5029577;28;20179;-77
2023/11/19 12:42:02;;;;;;;1.70;1.00;;;18.50;99.90;;;;;;5032545;28;20458;-77
2023/11/19 12:44:28;;;;;;;1.40;0.80;;;18.40;99.90;;;;;;5014403;28;20800;-77
2023/11/19 12:47:01;;;;;;;3.67;2.50;;;18.00;99.90;;;;;;5012800;28;20251;-77
2023/11/19 12:49:27;;;;;;;1.97;1.00;;;17.70;99.90;;;;;;5028010;28;20175;-77